< < Back
Terminal Aerodrome Forecast


Current Version              Previous Versions:   1  2  3  4  5  6  7  8  9  

Terminal Aerodrome Forecast

899
FTUS42 KJAX 301400 AAC
TAFSSI
TAF AMD
KSSI 301424Z 3014/0112 36009KT 4SM BR OVC004
     FM301530 01010KT P6SM OVC006
     FM301700 01010KT P6SM OVC012
     FM301900 02010KT P6SM SCT012 BKN025
     FM302100 03010KT P6SM SCT025 BKN040
     FM010800 35005KT P6SM FEW040=

Latest METAR

281
SAUS70 KWBC 302300 RRK
MTRSSI
METAR KSSI 302253Z AUTO 07005KT 10SM CLR 24/20 A2986 RMK AO2 SLP113
T02390200


USA.gov is the U.S. government's official web portal to all federal, state and local government web resources and services.